createdAt,value
2023-04-13T00:01:11.990Z,99149.33
2023-04-13T00:03:39.724Z,99148.20
2023-04-13T00:06:11.132Z,99139.54
2023-04-13T00:08:38.891Z,99137.63
2023-04-13T00:11:07.831Z,99137.98
2023-04-13T00:13:42.987Z,99132.34
2023-04-13T00:16:11.161Z,99127.41
2023-04-13T00:18:38.365Z,99131.83
2023-04-13T00:21:06.133Z,99134.52
2023-04-13T00:23:36.360Z,99132.00
2023-04-13T00:26:03.579Z,99129.83
2023-04-13T00:28:30.703Z,99127.52
2023-04-13T00:30:59.634Z,99131.85
2023-04-13T00:33:26.823Z,99130.73
2023-04-13T00:35:54.082Z,99136.63
2023-04-13T00:38:21.105Z,99138.75
2023-04-13T00:40:48.249Z,99137.04
2023-04-13T00:43:16.308Z,99134.30
2023-04-13T00:45:44.164Z,99132.07
2023-04-13T00:48:12.482Z,99122.96
2023-04-13T00:50:42.171Z,99118.96
2023-04-13T00:53:13.636Z,99108.48
2023-04-13T00:55:42.928Z,99091.05
2023-04-13T00:58:10.790Z,99073.71
2023-04-13T01:00:39.493Z,99068.63
2023-04-13T01:03:07.240Z,99070.70
2023-04-13T01:05:43.528Z,99073.93
2023-04-13T01:08:20.307Z,99072.16
2023-04-13T01:10:52.536Z,99075.33
2023-04-13T01:13:30.345Z,99070.29
2023-04-13T01:16:05.608Z,99075.27
2023-04-13T01:18:40.276Z,99076.81
2023-04-13T01:21:14.372Z,99079.28
2023-04-13T01:24:20.635Z,99087.76
2023-04-13T01:27:05.651Z,99093.15
2023-04-13T01:29:35.209Z,99100.30
2023-04-13T01:32:03.201Z,99105.17
2023-04-13T01:34:31.516Z,99108.77
2023-04-13T01:36:58.875Z,99108.42
2023-04-13T01:39:32.155Z,99109.39
2023-04-13T01:42:08.816Z,99112.75
2023-04-13T01:44:36.665Z,99114.30
2023-04-13T01:47:16.592Z,99112.09
2023-04-13T01:50:22.496Z,99106.98
2023-04-13T01:53:00.190Z,99111.19
2023-04-13T01:55:29.426Z,99114.45
2023-04-13T01:58:02.050Z,99116.21
2023-04-13T02:00:38.188Z,99118.08
2023-04-13T02:03:10.630Z,99121.67
2023-04-13T02:05:39.010Z,99122.25
2023-04-13T02:08:10.068Z,99121.10
2023-04-13T02:10:45.449Z,99125.15
2023-04-13T02:13:13.580Z,99127.01
2023-04-13T02:15:42.949Z,99127.27
2023-04-13T02:18:11.503Z,99130.55
2023-04-13T02:20:43.009Z,99134.46
2023-04-13T02:23:11.993Z,99135.36
2023-04-13T02:25:39.134Z,99135.44
2023-04-13T02:28:06.270Z,99132.80
2023-04-13T02:30:33.636Z,99132.48
2023-04-13T02:33:00.929Z,99134.96
2023-04-13T02:35:28.358Z,99138.83
2023-04-13T02:37:56.182Z,99139.04
2023-04-13T02:40:24.189Z,99141.84
2023-04-13T02:42:51.747Z,99142.39
2023-04-13T02:45:19.097Z,99147.02
2023-04-13T02:47:48.436Z,99149.21
2023-04-13T02:50:15.677Z,99148.05
2023-04-13T02:52:49.958Z,99146.36
2023-04-13T02:55:17.220Z,99143.99
2023-04-13T02:57:50.000Z,99138.02
2023-04-13T03:00:18.888Z,99134.77
2023-04-13T03:02:53.201Z,99129.77
2023-04-13T03:05:20.436Z,99123.27
2023-04-13T03:07:49.403Z,99121.42
2023-04-13T03:10:19.100Z,99121.84
2023-04-13T03:12:46.849Z,99120.05
2023-04-13T03:15:14.980Z,99121.06
2023-04-13T03:17:44.156Z,99129.73
2023-04-13T03:20:16.427Z,99132.00
2023-04-13T03:22:53.624Z,99132.16
2023-04-13T03:25:21.177Z,99131.05
2023-04-13T03:27:48.485Z,99132.48
2023-04-13T03:30:18.783Z,99141.11
2023-04-13T03:32:55.779Z,99145.94
2023-04-13T03:35:24.905Z,99147.70
2023-04-13T03:37:52.499Z,99150.23
2023-04-13T03:40:33.412Z,99152.49
2023-04-13T03:43:00.745Z,99158.77
2023-04-13T03:45:29.793Z,99158.60
2023-04-13T03:47:59.339Z,99160.58
2023-04-13T03:50:26.948Z,99162.05
2023-04-13T03:52:53.984Z,99161.17
2023-04-13T03:55:21.485Z,99161.23
2023-04-13T03:57:50.155Z,99165.20
2023-04-13T04:00:20.232Z,99170.02
2023-04-13T04:02:58.498Z,99172.04
2023-04-13T04:05:34.510Z,99169.48
2023-04-13T04:08:03.989Z,99172.30
2023-04-13T04:10:31.186Z,99175.11
2023-04-13T04:12:59.080Z,99179.83
2023-04-13T04:15:26.322Z,99181.34
2023-04-13T04:17:59.393Z,99185.53
2023-04-13T04:20:26.886Z,99186.44
2023-04-13T04:22:54.389Z,99184.70
2023-04-13T04:25:27.577Z,99186.36
2023-04-13T04:27:58.105Z,99184.13
2023-04-13T04:30:29.706Z,99187.47
2023-04-13T04:32:57.394Z,99191.59
2023-04-13T04:35:34.909Z,99192.13
2023-04-13T04:38:05.311Z,99187.71
2023-04-13T04:40:36.556Z,99183.67
2023-04-13T04:43:05.354Z,99174.48
2023-04-13T04:45:44.028Z,99171.14
2023-04-13T04:48:13.742Z,99166.98
2023-04-13T04:50:44.958Z,99166.38
2023-04-13T04:53:14.521Z,99160.63
2023-04-13T04:55:41.781Z,99158.25
2023-04-13T04:58:13.829Z,99160.73
2023-04-13T05:00:45.201Z,99156.67
2023-04-13T05:03:15.848Z,99157.73
2023-04-13T05:05:47.596Z,99156.87
2023-04-13T05:08:19.841Z,99157.20
2023-04-13T05:10:48.700Z,99154.95
2023-04-13T05:13:16.278Z,99155.73
2023-04-13T05:15:48.874Z,99151.34
2023-04-13T05:18:18.496Z,99153.73
2023-04-13T05:20:46.024Z,99149.89
2023-04-13T05:23:13.202Z,99147.92
2023-04-13T05:25:48.332Z,99155.67
2023-04-13T05:28:18.534Z,99158.05
2023-04-13T05:30:45.913Z,99160.80
2023-04-13T05:33:13.400Z,99162.77
2023-04-13T05:35:41.412Z,99160.27
2023-04-13T05:38:09.373Z,99162.87
2023-04-13T05:40:37.139Z,99165.50
2023-04-13T05:43:04.981Z,99166.45
2023-04-13T05:45:35.049Z,99171.23
2023-04-13T05:48:05.239Z,99170.27
2023-04-13T05:50:32.749Z,99175.54
2023-04-13T05:52:59.926Z,99175.29
2023-04-13T05:55:29.927Z,99178.39
2023-04-13T05:58:01.939Z,99179.73
2023-04-13T06:00:29.701Z,99180.13
2023-04-13T06:03:01.787Z,99183.06
2023-04-13T06:05:30.294Z,99182.57
2023-04-13T06:07:58.044Z,99184.41
2023-04-13T06:10:25.338Z,99180.87
2023-04-13T06:12:53.324Z,99179.77
2023-04-13T06:15:20.836Z,99175.23
2023-04-13T06:17:51.978Z,99176.11
2023-04-13T06:20:21.190Z,99178.15
2023-04-13T06:22:48.702Z,99175.90
2023-04-13T06:25:16.661Z,99177.04
2023-04-13T06:27:44.486Z,99174.17
2023-04-13T06:30:12.375Z,99170.52
2023-04-13T06:32:39.675Z,99169.68
2023-04-13T06:35:08.173Z,99168.33
2023-04-13T06:37:40.423Z,99164.70
2023-04-13T06:40:16.084Z,99163.67
2023-04-13T06:42:58.356Z,99159.38
2023-04-13T06:45:33.667Z,99160.27
2023-04-13T06:48:03.313Z,99159.94
2023-04-13T06:50:32.124Z,99163.09
2023-04-13T06:53:00.971Z,99168.77
2023-04-13T06:55:28.085Z,99175.34
2023-04-13T06:57:55.332Z,99177.58
2023-04-13T07:00:29.419Z,99177.16
2023-04-13T07:02:58.867Z,99172.23
2023-04-13T07:05:26.379Z,99175.02
2023-04-13T07:07:54.521Z,99171.43
2023-04-13T07:10:21.881Z,99169.79
2023-04-13T07:12:49.595Z,99164.62
2023-04-13T07:15:17.127Z,99163.77
2023-04-13T07:17:45.892Z,99162.11
2023-04-13T07:20:13.589Z,99160.64
2023-04-13T07:22:41.089Z,99160.61
2023-04-13T07:25:09.930Z,99157.56
2023-04-13T07:27:37.129Z,99155.77
2023-04-13T07:30:06.059Z,99155.76
2023-04-13T07:32:37.587Z,99150.02
2023-04-13T07:35:05.088Z,99148.73
2023-04-13T07:37:34.131Z,99143.95
2023-04-13T07:40:01.568Z,99139.84
2023-04-13T07:42:29.656Z,99146.52
2023-04-13T07:44:57.686Z,99148.58
2023-04-13T07:47:26.283Z,99149.77
2023-04-13T07:49:56.731Z,99145.67
2023-04-13T07:52:24.597Z,99145.36
2023-04-13T07:54:52.383Z,99147.48
2023-04-13T07:57:21.562Z,99144.65
2023-04-13T07:59:55.340Z,99142.73
2023-04-13T08:02:22.897Z,99140.98
2023-04-13T08:04:53.077Z,99140.34
2023-04-13T08:07:23.386Z,99139.77
2023-04-13T08:09:52.621Z,99136.99
2023-04-13T08:12:20.208Z,99139.34
2023-04-13T08:14:47.573Z,99136.77
2023-04-13T08:17:15.034Z,99135.75
2023-04-13T08:19:42.427Z,99128.88
2023-04-13T08:22:12.434Z,99126.35
2023-04-13T08:24:39.569Z,99126.91
2023-04-13T08:27:07.590Z,99128.86
2023-04-13T08:29:34.770Z,99131.33
2023-04-13T08:32:02.225Z,99130.58
2023-04-13T08:34:30.009Z,99123.65
2023-04-13T08:36:57.514Z,99127.27
2023-04-13T08:39:26.420Z,99128.28
2023-04-13T08:41:55.405Z,99131.65
2023-04-13T08:44:23.867Z,99129.80
2023-04-13T08:46:53.294Z,99130.29
2023-04-13T08:49:27.391Z,99134.61
2023-04-13T08:52:09.947Z,99136.69
2023-04-13T08:54:37.529Z,99138.17
2023-04-13T08:57:07.415Z,99143.32
2023-04-13T08:59:38.706Z,99144.64
2023-04-13T09:02:07.732Z,99144.02
2023-04-13T09:04:42.475Z,99144.91
2023-04-13T09:07:16.290Z,99151.20
2023-04-13T09:09:46.025Z,99149.36
2023-04-13T09:12:15.013Z,99148.87
2023-04-13T09:14:44.032Z,99147.63
2023-04-13T09:17:22.148Z,99149.80
2023-04-13T09:19:49.953Z,99153.64
2023-04-13T09:22:17.158Z,99152.00
2023-04-13T09:24:44.340Z,99149.05
2023-04-13T09:27:19.319Z,99152.09
2023-04-13T09:29:51.807Z,99149.48
2023-04-13T09:32:20.883Z,99147.90
2023-04-13T09:34:59.182Z,99151.91
2023-04-13T09:37:28.475Z,99153.16
2023-04-13T09:39:55.732Z,99154.76
2023-04-13T09:42:23.899Z,99157.14
2023-04-13T09:44:58.134Z,99155.45
2023-04-13T09:47:26.336Z,99160.56
2023-04-13T09:49:53.549Z,99156.85
2023-04-13T09:52:24.719Z,99159.48
2023-04-13T09:55:01.094Z,99157.83
2023-04-13T09:57:30.154Z,99159.52
2023-04-13T10:00:01.148Z,99161.50
2023-04-13T10:02:39.744Z,99162.02
2023-04-13T10:05:09.780Z,99164.57
2023-04-13T10:07:38.299Z,99165.90
2023-04-13T10:10:06.763Z,99166.98
2023-04-13T10:12:36.928Z,99169.40
2023-04-13T10:15:36.477Z,99176.16
2023-04-13T10:18:47.851Z,99177.82
2023-04-13T10:21:15.743Z,99178.30
2023-04-13T10:23:43.440Z,99172.95
2023-04-13T10:26:10.485Z,99171.86
2023-04-13T10:28:50.047Z,99168.89
2023-04-13T10:31:18.615Z,99169.65
2023-04-13T10:33:52.174Z,99173.33
2023-04-13T10:36:19.293Z,99170.84
2023-04-13T10:38:47.113Z,99172.97
2023-04-13T10:41:26.778Z,99168.42
2023-04-13T10:44:04.585Z,99168.04
2023-04-13T10:46:34.299Z,99173.23
2023-04-13T10:49:03.258Z,99168.23
2023-04-13T10:51:44.209Z,99168.34
2023-04-13T10:54:14.197Z,99172.38
2023-04-13T10:56:41.344Z,99169.45
2023-04-13T10:59:08.502Z,99169.13
2023-04-13T11:01:36.004Z,99161.95
2023-04-13T11:04:08.315Z,99168.17
2023-04-13T11:06:38.401Z,99171.88
2023-04-13T11:09:07.366Z,99168.73
2023-04-13T11:11:36.966Z,99169.33
2023-04-13T11:14:04.647Z,99171.58
2023-04-13T11:16:31.815Z,99175.20
2023-04-13T11:19:05.572Z,99175.00
2023-04-13T11:21:32.941Z,99178.65
2023-04-13T11:24:02.670Z,99173.52
2023-04-13T11:26:34.971Z,99181.98
2023-04-13T11:29:03.921Z,99181.81
2023-04-13T11:31:41.127Z,99182.79
2023-04-13T11:34:11.519Z,99179.48
2023-04-13T11:36:39.930Z,99176.65
2023-04-13T11:39:11.153Z,99176.89
2023-04-13T11:41:42.398Z,99183.80
2023-04-13T11:44:12.156Z,99182.02
2023-04-13T11:46:39.407Z,99178.90
2023-04-13T11:49:07.356Z,99173.11
2023-04-13T11:51:35.225Z,99171.45
2023-04-13T11:54:02.918Z,99169.67
2023-04-13T11:56:33.548Z,99165.16
2023-04-13T11:59:00.933Z,99165.63
2023-04-13T12:01:33.601Z,99167.12
2023-04-13T12:04:12.919Z,99161.66
2023-04-13T12:06:45.845Z,99159.28
2023-04-13T12:09:17.395Z,99159.15
2023-04-13T12:11:50.137Z,99155.55
2023-04-13T12:19:27.843Z,99157.60
2023-04-13T12:21:57.311Z,99153.38
2023-04-13T12:24:33.168Z,99150.09
2023-04-13T12:29:40.162Z,99137.54
2023-04-13T12:32:14.590Z,99139.94
2023-04-13T12:34:43.689Z,99142.61
2023-04-13T12:37:12.294Z,99147.69
2023-04-13T12:39:41.695Z,99141.80
2023-04-13T12:42:08.821Z,99139.79
2023-04-13T12:44:36.241Z,99137.29
2023-04-13T12:47:03.335Z,99139.73
2023-04-13T12:49:30.528Z,99139.08
2023-04-13T12:51:57.734Z,99137.02
2023-04-13T12:54:25.099Z,99136.34
2023-04-13T12:56:52.293Z,99137.79
2023-04-13T12:59:22.037Z,99136.36
2023-04-13T13:01:49.594Z,99137.86
2023-04-13T13:04:17.487Z,99135.58
2023-04-13T13:06:44.756Z,99138.05
2023-04-13T13:09:12.057Z,99140.77
2023-04-13T13:11:39.304Z,99139.67
2023-04-13T13:14:08.211Z,99140.25
2023-04-13T13:16:36.505Z,99141.14
2023-04-13T13:19:03.793Z,99137.74
2023-04-13T13:21:31.462Z,99138.09
2023-04-13T13:23:58.601Z,99132.85
2023-04-13T13:26:28.783Z,99138.59
2023-04-13T13:29:00.097Z,99139.68
2023-04-13T13:31:27.717Z,99142.70
2023-04-13T13:33:54.936Z,99143.60
2023-04-13T13:36:22.482Z,99143.55
2023-04-13T13:38:49.680Z,99139.08
2023-04-13T13:41:17.380Z,99142.79
2023-04-13T13:43:44.565Z,99149.31
2023-04-13T13:46:11.714Z,99154.62
2023-04-13T13:48:39.036Z,99155.82
2023-04-13T13:51:28.389Z,99155.98
2023-04-13T13:53:55.969Z,99160.41
2023-04-13T13:56:23.106Z,99164.40
2023-04-13T13:58:52.553Z,99162.63
2023-04-13T14:01:19.789Z,99168.86
2023-04-13T14:03:47.048Z,99168.94
2023-04-13T14:06:14.307Z,99166.09
2023-04-13T14:08:41.509Z,99167.23
2023-04-13T14:11:10.753Z,99164.69
2023-04-13T14:13:38.101Z,99158.70
2023-04-13T14:16:05.615Z,99164.08
2023-04-13T14:18:32.975Z,99166.55
2023-04-13T14:21:00.292Z,99168.52
2023-04-13T14:23:27.500Z,99171.73
2023-04-13T14:25:54.521Z,99175.04
2023-04-13T14:28:21.673Z,99173.13
2023-04-13T14:30:48.907Z,99168.77
2023-04-13T14:33:17.398Z,99165.34
2023-04-13T14:35:44.600Z,99171.74
2023-04-13T14:38:11.721Z,99168.64
2023-04-13T14:40:38.937Z,99173.09
2023-04-13T14:43:06.015Z,99173.17
2023-04-13T14:45:33.278Z,99175.39
2023-04-13T14:48:00.537Z,99175.89
2023-04-13T14:50:29.096Z,99173.77
2023-04-13T14:52:56.330Z,99171.73
2023-04-13T14:55:24.059Z,99168.05
2023-04-13T14:57:51.294Z,99168.37
2023-04-13T15:00:22.608Z,99169.30
2023-04-13T15:02:52.661Z,99173.50
2023-04-13T15:05:20.271Z,99173.27
2023-04-13T15:07:48.656Z,99176.14
2023-04-13T15:10:16.699Z,99176.52
2023-04-13T15:12:44.209Z,99182.15
2023-04-13T15:15:11.656Z,99181.48
2023-04-13T15:17:38.833Z,99182.49
2023-04-13T15:20:07.752Z,99180.44
2023-04-13T15:22:36.352Z,99186.35
2023-04-13T15:25:04.085Z,99192.55
2023-04-13T15:27:31.220Z,99190.27
2023-04-13T15:30:00.236Z,99194.98
2023-04-13T15:32:29.179Z,99195.48
2023-04-13T15:34:56.928Z,99197.09
2023-04-13T15:37:24.370Z,99194.52
2023-04-13T15:39:51.604Z,99197.05
2023-04-13T15:42:21.275Z,99194.64
2023-04-13T15:44:48.685Z,99195.88
2023-04-13T15:47:16.095Z,99193.19
2023-04-13T15:49:43.193Z,99196.11
2023-04-13T15:52:10.445Z,99199.27
2023-04-13T15:54:37.590Z,99204.59
2023-04-13T15:57:04.770Z,99203.58
2023-04-13T15:59:34.155Z,99212.00
2023-04-13T16:02:01.836Z,99209.94
2023-04-13T16:04:30.189Z,99211.15
2023-04-13T16:07:11.821Z,99212.73
2023-04-13T16:09:44.018Z,99213.63
2023-04-13T16:12:11.838Z,99212.21
2023-04-13T16:14:39.213Z,99212.23
2023-04-13T16:17:07.795Z,99214.67
2023-04-13T16:19:35.927Z,99218.26
2023-04-13T16:22:10.600Z,99219.06
2023-04-13T16:24:37.921Z,99219.30
2023-04-13T16:27:06.318Z,99221.70
2023-04-13T16:29:33.837Z,99225.50
2023-04-13T16:32:00.947Z,99226.14
2023-04-13T16:34:28.093Z,99224.95
2023-04-13T16:36:56.215Z,99230.84
2023-04-13T16:39:23.368Z,99234.27
2023-04-13T16:41:50.489Z,99235.15
2023-04-13T16:44:17.613Z,99238.34
2023-04-13T16:46:44.789Z,99237.45
2023-04-13T16:49:12.628Z,99238.30
2023-04-13T16:51:39.730Z,99239.98
2023-04-13T16:54:06.869Z,99237.52
2023-04-13T16:56:33.995Z,99235.41
2023-04-13T16:59:01.569Z,99236.48
2023-04-13T17:01:29.573Z,99240.71
2023-04-13T17:03:57.370Z,99240.17
2023-04-13T17:06:24.770Z,99242.65
2023-04-13T17:08:51.884Z,99247.59
2023-04-13T17:11:19.077Z,99250.33
2023-04-13T17:13:46.940Z,99255.21
2023-04-13T17:16:14.218Z,99254.98
2023-04-13T17:18:41.982Z,99260.64
2023-04-13T17:21:09.101Z,99263.73
2023-04-13T17:23:36.840Z,99266.23
2023-04-13T17:26:04.110Z,99267.48
2023-04-13T17:28:31.270Z,99272.23
2023-04-13T17:30:58.403Z,99275.48
2023-04-13T17:33:28.086Z,99277.79
2023-04-13T17:35:55.670Z,99281.41
2023-04-13T17:38:26.241Z,99285.23
2023-04-13T17:40:53.411Z,99289.83
2023-04-13T17:43:20.766Z,99287.64
2023-04-13T17:45:47.957Z,99288.84
2023-04-13T17:48:15.183Z,99291.33
2023-04-13T17:50:42.342Z,99289.21
2023-04-13T17:53:09.526Z,99294.08
2023-04-13T17:55:39.127Z,99293.27
2023-04-13T17:58:06.321Z,99292.99
2023-04-13T18:00:33.451Z,99292.08
2023-04-13T18:03:02.486Z,99295.45
2023-04-13T18:05:31.912Z,99298.65
2023-04-13T18:07:58.968Z,99305.89
2023-04-13T18:10:26.087Z,99308.84
2023-04-13T18:12:53.162Z,99312.31
2023-04-13T18:15:20.317Z,99316.90
2023-04-13T18:17:47.519Z,99319.27
2023-04-13T18:20:14.828Z,99321.14
2023-04-13T18:22:41.933Z,99325.02
2023-04-13T18:25:09.863Z,99332.16
2023-04-13T18:27:36.856Z,99335.47
2023-04-13T18:30:04.448Z,99340.24
2023-04-13T18:32:31.616Z,99340.84
2023-04-13T18:34:58.799Z,99344.65
2023-04-13T18:37:25.941Z,99344.87
2023-04-13T18:39:54.744Z,99347.59
2023-04-13T18:42:21.793Z,99352.84
2023-04-13T18:44:48.910Z,99352.52
2023-04-13T18:47:16.509Z,99351.46
2023-04-13T18:49:44.841Z,99357.22
2023-04-13T18:52:11.913Z,99360.56
2023-04-13T18:54:41.023Z,99362.36
2023-04-13T18:57:08.231Z,99366.29
2023-04-13T18:59:35.720Z,99365.44
2023-04-13T19:02:02.870Z,99364.26
2023-04-13T19:04:30.259Z,99365.41
2023-04-13T19:06:57.745Z,99365.45
2023-04-13T19:09:24.871Z,99365.37
2023-04-13T19:11:53.456Z,99362.56
2023-04-13T19:14:20.580Z,99363.95
2023-04-13T19:16:47.894Z,99362.36
2023-04-13T19:19:15.297Z,99359.87
2023-04-13T19:21:42.534Z,99360.30
2023-04-13T19:24:14.410Z,99360.42
2023-04-13T19:26:41.538Z,99362.39
2023-04-13T19:29:13.170Z,99362.39
2023-04-13T19:31:42.895Z,99364.88
2023-04-13T19:34:11.604Z,99362.19
2023-04-13T19:36:39.821Z,99364.96
2023-04-13T19:39:08.183Z,99365.82
2023-04-13T19:41:37.526Z,99363.30
2023-04-13T19:44:05.552Z,99370.93
2023-04-13T19:46:35.692Z,99372.46
2023-04-13T19:49:03.218Z,99371.06
2023-04-13T19:51:32.990Z,99375.61
2023-04-13T19:54:02.724Z,99375.40
2023-04-13T19:56:30.858Z,99375.59
2023-04-13T19:58:58.093Z,99380.23
2023-04-13T20:01:25.590Z,99381.36
2023-04-13T20:03:53.055Z,99385.27
2023-04-13T20:06:20.651Z,99384.83
2023-04-13T20:08:48.008Z,99386.22
2023-04-13T20:11:15.225Z,99387.17
2023-04-13T20:13:42.607Z,99386.80
2023-04-13T20:16:11.049Z,99389.55
2023-04-13T20:18:38.479Z,99384.72
2023-04-13T20:21:06.558Z,99385.27
2023-04-13T20:23:34.643Z,99382.00
2023-04-13T20:26:01.849Z,99380.81
2023-04-13T20:28:29.113Z,99375.77
2023-04-13T20:30:56.385Z,99374.62
2023-04-13T20:33:23.595Z,99374.94
2023-04-13T20:35:52.258Z,99375.67
2023-04-13T20:38:19.505Z,99374.71
2023-04-13T20:40:48.365Z,99375.98
2023-04-13T20:43:20.633Z,99378.27
2023-04-13T20:45:47.909Z,99379.68
2023-04-13T20:50:47.905Z,99381.93
2023-04-13T20:53:16.835Z,99383.70
2023-04-13T20:55:44.167Z,99380.13
2023-04-13T20:58:11.438Z,99378.40
2023-04-13T21:00:38.724Z,99380.58
2023-04-13T21:03:09.371Z,99380.34
2023-04-13T21:05:36.799Z,99382.01
2023-04-13T21:08:04.129Z,99390.27
2023-04-13T21:10:31.282Z,99388.23
2023-04-13T21:12:58.420Z,99391.25
2023-04-13T21:15:25.630Z,99388.16
2023-04-13T21:17:52.807Z,99384.96
2023-04-13T21:20:20.073Z,99386.09
2023-04-13T21:22:47.201Z,99387.05
2023-04-13T21:25:14.310Z,99383.74
2023-04-13T21:27:41.428Z,99385.84
2023-04-13T21:30:09.022Z,99385.09
2023-04-13T21:32:36.322Z,99384.22
2023-04-13T21:35:03.582Z,99386.63
2023-04-13T21:37:30.726Z,99387.85
2023-04-13T21:40:01.907Z,99390.36
2023-04-13T21:42:29.418Z,99391.38
2023-04-13T21:44:57.251Z,99388.77
2023-04-13T21:47:24.479Z,99390.88
2023-04-13T21:49:51.647Z,99389.32
2023-04-13T21:52:18.718Z,99387.80
2023-04-13T21:54:45.809Z,99390.64
2023-04-13T21:57:13.243Z,99391.95
2023-04-13T21:59:40.957Z,99393.48
2023-04-13T22:02:08.195Z,99394.70
2023-04-13T22:04:35.934Z,99396.38
2023-04-13T22:07:03.145Z,99398.55
2023-04-13T22:09:31.073Z,99400.08
2023-04-13T22:11:58.202Z,99404.39
2023-04-13T22:14:26.072Z,99405.84
2023-04-13T22:16:54.072Z,99406.18
2023-04-13T22:19:21.102Z,99406.21
2023-04-13T22:21:48.287Z,99407.36
2023-04-13T22:24:16.211Z,99414.15
2023-04-13T22:26:43.248Z,99414.64
2023-04-13T22:29:10.499Z,99415.94
2023-04-13T22:31:37.699Z,99415.11
2023-04-13T22:34:04.886Z,99418.05
2023-04-13T22:36:32.217Z,99418.50
2023-04-13T22:38:59.530Z,99418.83
2023-04-13T22:41:26.854Z,99417.40
2023-04-13T22:43:53.990Z,99419.03
2023-04-13T22:46:21.331Z,99416.61
2023-04-13T22:48:48.833Z,99420.48
2023-04-13T22:51:16.458Z,99419.09
2023-04-13T22:53:43.807Z,99420.13
2023-04-13T22:56:10.854Z,99419.95
2023-04-13T22:58:37.954Z,99416.75
2023-04-13T23:01:05.275Z,99416.34
2023-04-13T23:03:32.662Z,99414.59
2023-04-13T23:05:59.838Z,99420.08
2023-04-13T23:08:29.481Z,99416.02
2023-04-13T23:10:56.748Z,99421.08
2023-04-13T23:13:23.836Z,99419.14
2023-04-13T23:15:59.223Z,99417.73
2023-04-13T23:18:26.366Z,99424.09
2023-04-13T23:20:53.511Z,99419.58
2023-04-13T23:23:20.661Z,99421.45
2023-04-13T23:25:51.256Z,99419.47
2023-04-13T23:28:18.326Z,99420.58
2023-04-13T23:30:45.513Z,99420.57
2023-04-13T23:33:12.612Z,99421.85
2023-04-13T23:35:39.669Z,99420.79
2023-04-13T23:38:06.726Z,99417.16
2023-04-13T23:40:33.871Z,99415.92
2023-04-13T23:43:01.087Z,99421.17
2023-04-13T23:45:28.592Z,99419.32
2023-04-13T23:47:55.847Z,99420.64
2023-04-13T23:50:23.210Z,99416.38
2023-04-13T23:52:50.393Z,99419.52
2023-04-13T23:55:17.492Z,99416.52
2023-04-13T23:57:44.572Z,99420.77
